createdAt,value
2023-02-11T00:01:49.732Z,92995.25
2023-02-11T00:04:16.377Z,92999.53
2023-02-11T00:06:43.003Z,92996.25
2023-02-11T00:09:10.163Z,92996.06
2023-02-11T00:11:36.921Z,93008.38
2023-02-11T00:14:05.444Z,93003.72
2023-02-11T00:16:32.570Z,93007.69
2023-02-11T00:19:00.375Z,93009.53
2023-02-11T00:21:27.067Z,93014.53
2023-02-11T00:23:54.950Z,93011.78
2023-02-11T00:26:23.477Z,93012.19
2023-02-11T00:28:50.516Z,93006.78
2023-02-11T00:31:17.814Z,93008.97
2023-02-11T00:33:44.982Z,92996.78
2023-02-11T00:36:22.617Z,93000.88
2023-02-11T00:38:49.985Z,92994.88
2023-02-11T00:41:17.005Z,92995.53
2023-02-11T00:43:43.780Z,92997.53
2023-02-11T00:46:10.580Z,92989.94
2023-02-11T00:48:37.395Z,93003.44
2023-02-11T00:51:04.338Z,92988.75
2023-02-11T00:53:31.735Z,92987.81
2023-02-11T00:55:58.402Z,92987.38
2023-02-11T00:58:25.066Z,92984.00
2023-02-11T01:00:51.730Z,92985.56
2023-02-11T01:03:18.459Z,92993.22
2023-02-11T01:05:45.295Z,92992.75
2023-02-11T01:08:11.919Z,92992.63
2023-02-11T01:10:38.526Z,92986.50
2023-02-11T01:13:06.649Z,92983.66
2023-02-11T01:15:33.509Z,92986.25
2023-02-11T01:18:00.149Z,92992.00
2023-02-11T01:20:27.751Z,92978.34
2023-02-11T01:22:54.397Z,92981.66
2023-02-11T01:25:21.114Z,92982.97
2023-02-11T01:27:47.726Z,92973.13
2023-02-11T01:30:14.421Z,92966.44
2023-02-11T01:32:41.142Z,92962.34
2023-02-11T01:35:08.240Z,92958.06
2023-02-11T01:37:35.166Z,92957.81
2023-02-11T01:40:02.764Z,92954.63
2023-02-11T01:42:29.405Z,92944.00
2023-02-11T01:44:57.386Z,92945.84
2023-02-11T01:47:24.034Z,92945.03
2023-02-11T01:49:56.157Z,92938.09
2023-02-11T01:52:35.729Z,92942.97
2023-02-11T01:55:22.937Z,92938.19
2023-02-11T01:57:52.841Z,92930.03
2023-02-11T02:00:24.296Z,92920.50
2023-02-11T02:03:06.532Z,92922.47
2023-02-11T02:05:40.469Z,92927.25
2023-02-11T02:08:20.293Z,92925.69
2023-02-11T02:10:48.499Z,92926.16
2023-02-11T02:13:15.371Z,92940.44
2023-02-11T02:15:46.740Z,92928.28
2023-02-11T02:18:31.820Z,92931.00
2023-02-11T02:21:07.428Z,92928.44
2023-02-11T02:23:43.100Z,92926.72
2023-02-11T02:26:09.620Z,92930.47
2023-02-11T02:28:42.284Z,92928.63
2023-02-11T02:31:30.124Z,92929.59
2023-02-11T02:34:01.603Z,92932.97
2023-02-11T02:36:40.533Z,92927.75
2023-02-11T02:39:16.143Z,92926.88
2023-02-11T02:41:42.833Z,92926.59
2023-02-11T02:44:09.538Z,92935.19
2023-02-11T02:46:36.362Z,92931.94
2023-02-11T02:49:03.188Z,92925.91
2023-02-11T02:51:51.733Z,92931.78
2023-02-11T02:54:18.242Z,92928.31
2023-02-11T02:56:56.427Z,92929.91
2023-02-11T02:59:35.082Z,92931.31
2023-02-11T03:02:35.349Z,92932.41
2023-02-11T03:05:23.892Z,92935.56
2023-02-11T03:08:09.266Z,92936.25
2023-02-11T03:10:43.837Z,92942.91
2023-02-11T03:13:10.582Z,92937.63
2023-02-11T03:15:39.133Z,92933.38
2023-02-11T03:18:05.839Z,92934.06
2023-02-11T03:20:33.372Z,92943.28
2023-02-11T03:23:08.020Z,92937.38
2023-02-11T03:25:37.473Z,92941.09
2023-02-11T03:28:22.357Z,92942.69
2023-02-11T03:31:29.491Z,92930.59
2023-02-11T03:34:02.399Z,92938.84
2023-02-11T03:36:48.020Z,92937.97
2023-02-11T03:39:17.750Z,92935.59
2023-02-11T03:41:44.498Z,92942.03
2023-02-11T03:44:11.132Z,92938.34
2023-02-11T03:46:38.319Z,92952.00
2023-02-11T03:49:08.631Z,92939.19
2023-02-11T03:51:35.379Z,92953.63
2023-02-11T03:54:02.815Z,92948.06
2023-02-11T03:56:30.576Z,92946.91
2023-02-11T03:58:57.413Z,92940.63
2023-02-11T04:01:24.141Z,92946.75
2023-02-11T04:03:50.845Z,92933.78
2023-02-11T04:06:17.530Z,92937.41
2023-02-11T04:08:44.256Z,92928.44
2023-02-11T04:11:10.938Z,92933.19
2023-02-11T04:13:37.602Z,92931.72
2023-02-11T04:16:04.343Z,92932.97
2023-02-11T04:18:31.177Z,92939.50
2023-02-11T04:20:57.933Z,92934.06
2023-02-11T04:23:24.646Z,92927.97
2023-02-11T04:25:51.606Z,92928.50
2023-02-11T04:28:18.895Z,92937.00
2023-02-11T04:30:45.615Z,92930.56
2023-02-11T04:33:12.309Z,92937.50
2023-02-11T04:35:38.912Z,92928.19
2023-02-11T04:38:05.513Z,92922.91
2023-02-11T04:40:32.198Z,92923.09
2023-02-11T04:42:58.829Z,92924.75
2023-02-11T04:45:25.603Z,92922.34
2023-02-11T04:47:52.305Z,92918.78
2023-02-11T04:50:18.961Z,92920.47
2023-02-11T04:52:45.605Z,92919.59
2023-02-11T04:55:12.990Z,92918.09
2023-02-11T04:57:39.686Z,92921.09
2023-02-11T05:00:06.749Z,92916.16
2023-02-11T05:02:33.453Z,92923.09
2023-02-11T05:05:00.153Z,92913.97
2023-02-11T05:07:26.867Z,92909.78
2023-02-11T05:09:53.454Z,92913.72
2023-02-11T05:12:20.230Z,92911.69
2023-02-11T05:14:46.983Z,92914.03
2023-02-11T05:17:13.634Z,92913.34
2023-02-11T05:19:41.409Z,92923.25
2023-02-11T05:22:08.160Z,92919.03
2023-02-11T05:24:34.879Z,92906.88
2023-02-11T05:27:01.666Z,92913.28
2023-02-11T05:29:28.684Z,92909.03
2023-02-11T05:31:55.255Z,92912.13
2023-02-11T05:34:21.932Z,92899.91
2023-02-11T05:36:48.616Z,92910.69
2023-02-11T05:39:15.300Z,92900.31
2023-02-11T05:41:41.999Z,92908.31
2023-02-11T05:44:08.675Z,92904.31
2023-02-11T05:46:35.392Z,92913.13
2023-02-11T05:49:02.089Z,92913.97
2023-02-11T05:51:28.818Z,92919.63
2023-02-11T05:53:55.448Z,92918.06
2023-02-11T05:56:22.123Z,92910.47
2023-02-11T05:58:48.798Z,92906.47
2023-02-11T06:01:15.468Z,92909.94
2023-02-11T06:03:42.302Z,92918.63
2023-02-11T06:06:12.638Z,92910.34
2023-02-11T06:08:39.518Z,92919.72
2023-02-11T06:11:06.261Z,92914.34
2023-02-11T06:13:33.045Z,92915.38
2023-02-11T06:16:00.404Z,92919.34
2023-02-11T06:18:27.267Z,92921.28
2023-02-11T06:20:54.023Z,92926.75
2023-02-11T06:23:21.106Z,92915.69
2023-02-11T06:25:47.850Z,92911.81
2023-02-11T06:28:14.610Z,92913.16
2023-02-11T06:30:41.554Z,92906.50
2023-02-11T06:33:08.219Z,92904.56
2023-02-11T06:35:35.446Z,92907.50
2023-02-11T06:38:02.311Z,92911.28
2023-02-11T06:40:28.973Z,92906.09
2023-02-11T06:42:55.641Z,92913.16
2023-02-11T06:45:22.350Z,92914.88
2023-02-11T06:47:50.587Z,92918.47
2023-02-11T06:50:17.239Z,92921.38
2023-02-11T06:52:44.128Z,92917.69
2023-02-11T06:55:10.778Z,92903.44
2023-02-11T06:57:37.450Z,92904.38
2023-02-11T07:00:05.677Z,92916.19
2023-02-11T07:02:32.580Z,92907.22
2023-02-11T07:04:59.264Z,92907.31
2023-02-11T07:07:25.970Z,92902.63
2023-02-11T07:09:52.681Z,92903.09
2023-02-11T07:12:19.333Z,92909.97
2023-02-11T07:14:46.139Z,92908.25
2023-02-11T07:17:12.746Z,92899.69
2023-02-11T07:19:39.447Z,92906.44
2023-02-11T07:22:06.159Z,92914.13
2023-02-11T07:24:32.808Z,92910.63
2023-02-11T07:26:59.519Z,92895.50
2023-02-11T07:29:26.188Z,92904.44
2023-02-11T07:31:53.018Z,92903.91
2023-02-11T07:34:19.734Z,92903.53
2023-02-11T07:36:46.542Z,92898.63
2023-02-11T07:39:13.684Z,92903.44
2023-02-11T07:41:40.419Z,92890.84
2023-02-11T07:44:07.160Z,92890.31
2023-02-11T07:46:35.714Z,92895.50
2023-02-11T07:49:02.576Z,92897.75
2023-02-11T07:51:29.957Z,92893.19
2023-02-11T07:53:57.731Z,92887.66
2023-02-11T07:56:24.378Z,92890.41
2023-02-11T07:58:51.171Z,92891.81
2023-02-11T08:01:20.375Z,92885.47
2023-02-11T08:03:47.078Z,92884.84
2023-02-11T08:06:17.979Z,92877.81
2023-02-11T08:08:44.705Z,92881.31
2023-02-11T08:11:13.252Z,92873.38
2023-02-11T08:13:39.996Z,92870.78
2023-02-11T08:16:07.323Z,92868.81
2023-02-11T08:18:34.472Z,92870.38
2023-02-11T08:21:05.857Z,92868.72
2023-02-11T08:23:32.523Z,92862.31
2023-02-11T08:26:03.806Z,92868.81
2023-02-11T08:28:30.632Z,92866.03
2023-02-11T08:30:57.437Z,92867.09
2023-02-11T08:33:24.102Z,92860.50
2023-02-11T08:35:50.721Z,92858.88
2023-02-11T08:38:17.298Z,92857.75
2023-02-11T08:40:43.893Z,92860.47
2023-02-11T08:43:10.541Z,92859.13
2023-02-11T08:45:37.653Z,92860.25
2023-02-11T08:48:04.446Z,92867.16
2023-02-11T08:50:32.362Z,92860.78
2023-02-11T08:52:59.090Z,92854.13
2023-02-11T08:55:25.793Z,92856.84
2023-02-11T08:57:52.447Z,92858.72
2023-02-11T09:00:19.375Z,92864.19
2023-02-11T09:02:46.148Z,92865.88
2023-02-11T09:05:13.167Z,92862.09
2023-02-11T09:07:39.882Z,92852.59
2023-02-11T09:10:06.697Z,92855.72
2023-02-11T09:12:33.429Z,92852.97
2023-02-11T09:15:00.092Z,92863.91
2023-02-11T09:17:26.813Z,92860.53
2023-02-11T09:19:53.546Z,92852.81
2023-02-11T09:22:20.210Z,92856.81
2023-02-11T09:24:46.878Z,92843.59
2023-02-11T09:27:13.664Z,92842.25
2023-02-11T09:29:40.368Z,92850.97
2023-02-11T09:32:09.760Z,92847.53
2023-02-11T09:34:36.759Z,92829.38
2023-02-11T09:37:03.490Z,92829.06
2023-02-11T09:39:30.209Z,92827.88
2023-02-11T09:42:10.934Z,92829.44
2023-02-11T09:44:37.917Z,92822.91
2023-02-11T09:47:21.225Z,92808.44
2023-02-11T09:49:50.608Z,92811.56
2023-02-11T09:52:32.716Z,92806.44
2023-02-11T09:55:04.648Z,92806.34
2023-02-11T09:57:36.116Z,92802.72
2023-02-11T10:00:07.686Z,92801.97
2023-02-11T10:02:57.184Z,92795.97
2023-02-11T10:05:35.856Z,92781.75
2023-02-11T10:08:13.640Z,92776.16
2023-02-11T10:10:52.323Z,92778.38
2023-02-11T10:13:25.026Z,92774.28
2023-02-11T10:15:58.488Z,92773.78
2023-02-11T10:19:09.842Z,92766.06
2023-02-11T10:22:13.884Z,92754.94
2023-02-11T10:24:40.576Z,92751.69
2023-02-11T10:27:15.467Z,92740.19
2023-02-11T10:29:45.673Z,92735.78
2023-02-11T10:32:47.676Z,92725.28
2023-02-11T10:35:19.099Z,92717.81
2023-02-11T10:37:45.865Z,92709.84
2023-02-11T10:40:24.170Z,92712.47
2023-02-11T10:42:55.494Z,92703.81
2023-02-11T10:45:27.571Z,92690.72
2023-02-11T10:47:55.271Z,92699.13
2023-02-11T10:50:26.042Z,92691.56
2023-02-11T10:52:52.855Z,92685.81
2023-02-11T10:55:21.606Z,92679.50
2023-02-11T10:57:56.507Z,92686.63
2023-02-11T11:00:34.130Z,92680.88
2023-02-11T11:03:00.881Z,92668.31
2023-02-11T11:05:36.333Z,92668.59
2023-02-11T11:08:07.789Z,92659.34
2023-02-11T11:10:44.960Z,92652.34
2023-02-11T11:13:23.447Z,92641.06
2023-02-11T11:16:13.905Z,92646.34
2023-02-11T11:18:41.560Z,92642.22
2023-02-11T11:21:25.578Z,92636.66
2023-02-11T11:23:57.535Z,92634.09
2023-02-11T11:26:28.518Z,92626.88
2023-02-11T11:29:00.491Z,92634.97
2023-02-11T11:31:31.757Z,92627.81
2023-02-11T11:33:59.772Z,92622.84
2023-02-11T11:36:35.110Z,92615.41
2023-02-11T11:39:04.427Z,92620.78
2023-02-11T11:41:34.531Z,92612.78
2023-02-11T11:44:03.919Z,92607.19
2023-02-11T11:46:36.089Z,92614.09
2023-02-11T11:49:34.104Z,92610.81
2023-02-11T11:52:23.892Z,92610.94
2023-02-11T11:54:55.517Z,92609.44
2023-02-11T11:57:24.569Z,92600.09
2023-02-11T11:59:51.242Z,92595.16
2023-02-11T12:02:22.100Z,92595.72
2023-02-11T12:05:06.414Z,92586.00
2023-02-11T12:07:36.804Z,92587.84
2023-02-11T12:10:34.483Z,92589.34
2023-02-11T12:13:09.231Z,92582.47
2023-02-11T12:16:00.634Z,92582.78
2023-02-11T12:18:51.240Z,92576.13
2023-02-11T12:21:23.871Z,92575.47
2023-02-11T12:24:16.319Z,92565.72
2023-02-11T12:27:06.579Z,92568.25
2023-02-11T12:29:51.737Z,92564.69
2023-02-11T12:32:33.429Z,92561.16
2023-02-11T12:35:15.157Z,92561.00
2023-02-11T12:38:09.600Z,92554.75
2023-02-11T12:40:44.210Z,92556.81
2023-02-11T12:43:39.278Z,92560.53
2023-02-11T12:46:21.093Z,92551.50
2023-02-11T12:49:09.144Z,92550.50
2023-02-11T12:51:39.948Z,92560.88
2023-02-11T12:54:26.632Z,92551.75
2023-02-11T12:56:55.634Z,92546.25
2023-02-11T12:59:52.079Z,92530.44
2023-02-11T13:02:41.633Z,92532.16
2023-02-11T13:05:20.168Z,92531.69
2023-02-11T13:07:46.884Z,92532.91
2023-02-11T13:10:33.682Z,92525.03
2023-02-11T13:13:18.523Z,92525.63
2023-02-11T13:15:57.049Z,92523.56
2023-02-11T13:18:49.990Z,92519.56
2023-02-11T13:21:16.688Z,92522.81
2023-02-11T13:24:09.451Z,92526.09
2023-02-11T13:27:00.245Z,92515.28
2023-02-11T13:29:51.064Z,92519.97
2023-02-11T13:32:17.653Z,92511.63
2023-02-11T13:34:44.289Z,92517.84
2023-02-11T13:37:29.042Z,92515.06
2023-02-11T13:40:00.186Z,92514.22
2023-02-11T13:42:27.454Z,92518.81
2023-02-11T13:44:54.261Z,92507.88
2023-02-11T13:47:28.317Z,92506.00
2023-02-11T13:49:54.803Z,92504.00
2023-02-11T13:52:29.791Z,92503.41
2023-02-11T13:54:59.006Z,92505.13
2023-02-11T13:57:31.332Z,92502.66
2023-02-11T13:59:59.840Z,92506.00
2023-02-11T14:02:52.674Z,92509.81
2023-02-11T14:05:42.520Z,92500.25
2023-02-11T14:08:30.237Z,92509.09
2023-02-11T14:11:01.039Z,92505.81
2023-02-11T14:13:34.238Z,92502.78
2023-02-11T14:16:10.026Z,92498.16
2023-02-11T14:18:52.525Z,92507.09
2023-02-11T14:21:23.426Z,92504.00
2023-02-11T14:23:53.389Z,92499.84
2023-02-11T14:26:20.166Z,92505.13
2023-02-11T14:29:07.600Z,92507.72
2023-02-11T14:31:44.023Z,92500.25
2023-02-11T14:34:48.810Z,92509.56
2023-02-11T14:37:19.516Z,92505.53
2023-02-11T14:39:54.891Z,92504.44
2023-02-11T14:42:26.543Z,92508.38
2023-02-11T14:44:55.063Z,92503.06
2023-02-11T14:47:40.254Z,92490.09
2023-02-11T14:50:09.888Z,92490.75
2023-02-11T14:52:36.563Z,92484.50
2023-02-11T14:55:29.502Z,92489.56
2023-02-11T14:58:15.351Z,92483.09
2023-02-11T15:00:52.749Z,92481.31
2023-02-11T15:03:48.938Z,92486.28
2023-02-11T15:06:18.826Z,92492.44
2023-02-11T15:08:51.443Z,92487.94
2023-02-11T15:11:19.516Z,92489.84
2023-02-11T15:13:50.320Z,92498.88
2023-02-11T15:16:19.839Z,92489.59
2023-02-11T15:18:54.541Z,92498.66
2023-02-11T15:21:30.058Z,92495.19
2023-02-11T15:24:20.945Z,92493.63
2023-02-11T15:27:04.485Z,92487.13
2023-02-11T15:29:39.682Z,92495.25
2023-02-11T15:32:07.260Z,92490.50
2023-02-11T15:34:34.037Z,92496.69
2023-02-11T15:37:01.047Z,92491.91
2023-02-11T15:39:38.449Z,92481.72
2023-02-11T15:42:21.110Z,92481.97
2023-02-11T15:44:54.337Z,92491.59
2023-02-11T15:47:23.213Z,92488.78
2023-02-11T15:49:49.968Z,92492.00
2023-02-11T15:52:23.621Z,92491.78
2023-02-11T15:54:50.299Z,92488.72
2023-02-11T15:57:17.988Z,92496.88
2023-02-11T15:59:49.673Z,92491.44
2023-02-11T16:02:19.275Z,92501.44
2023-02-11T16:05:06.407Z,92492.28
2023-02-11T16:07:47.360Z,92493.91
2023-02-11T16:10:24.281Z,92495.28
2023-02-11T16:13:04.543Z,92492.28
2023-02-11T16:15:45.875Z,92496.47
2023-02-11T16:18:15.583Z,92489.78
2023-02-11T16:20:47.118Z,92481.31
2023-02-11T16:23:31.895Z,92488.97
2023-02-11T16:26:08.542Z,92496.72
2023-02-11T16:28:36.938Z,92495.84
2023-02-11T16:31:03.844Z,92488.63
2023-02-11T16:33:30.670Z,92487.47
2023-02-11T16:35:57.824Z,92492.63
2023-02-11T16:38:24.687Z,92485.47
2023-02-11T16:40:51.756Z,92490.97
2023-02-11T16:43:19.958Z,92489.84
2023-02-11T16:45:47.068Z,92485.13
2023-02-11T16:48:17.564Z,92479.19
2023-02-11T16:50:46.653Z,92484.53
2023-02-11T16:53:22.333Z,92482.75
2023-02-11T16:55:49.179Z,92497.34
2023-02-11T16:58:15.861Z,92498.50
2023-02-11T17:00:44.857Z,92496.13
2023-02-11T17:03:21.355Z,92506.81
2023-02-11T17:05:55.434Z,92505.25
2023-02-11T17:08:22.797Z,92497.75
2023-02-11T17:10:50.048Z,92506.06
2023-02-11T17:13:17.037Z,92500.94
2023-02-11T17:15:43.710Z,92498.34
2023-02-11T17:18:12.676Z,92502.31
2023-02-11T17:20:39.490Z,92514.94
2023-02-11T17:23:06.272Z,92512.19
2023-02-11T17:25:32.991Z,92508.63
2023-02-11T17:27:59.653Z,92501.31
2023-02-11T17:30:26.374Z,92510.00
2023-02-11T17:32:52.980Z,92508.28
2023-02-11T17:35:19.655Z,92513.41
2023-02-11T17:37:46.470Z,92508.13
2023-02-11T17:40:13.719Z,92500.06
2023-02-11T17:42:40.515Z,92502.75
2023-02-11T17:45:08.551Z,92503.47
2023-02-11T17:47:35.343Z,92504.28
2023-02-11T17:50:03.050Z,92506.00
2023-02-11T17:52:29.908Z,92512.91
2023-02-11T17:54:57.941Z,92515.22
2023-02-11T17:57:24.611Z,92515.47
2023-02-11T17:59:51.596Z,92516.88
2023-02-11T18:02:18.194Z,92526.94
2023-02-11T18:04:44.973Z,92526.38
2023-02-11T18:07:11.773Z,92530.25
2023-02-11T18:09:39.400Z,92532.56
2023-02-11T18:12:06.782Z,92532.22
2023-02-11T18:14:34.065Z,92523.47
2023-02-11T18:17:00.797Z,92534.16
2023-02-11T18:19:30.607Z,92523.59
2023-02-11T18:22:00.837Z,92515.84
2023-02-11T18:24:27.746Z,92537.47
2023-02-11T18:26:54.576Z,92532.97
2023-02-11T18:29:21.371Z,92528.28
2023-02-11T18:31:48.089Z,92533.56
2023-02-11T18:34:15.946Z,92544.75
2023-02-11T18:36:42.740Z,92533.78
2023-02-11T18:39:09.473Z,92528.75
2023-02-11T18:41:36.272Z,92536.72
2023-02-11T18:44:04.945Z,92537.56
2023-02-11T18:46:31.803Z,92530.22
2023-02-11T18:48:58.603Z,92525.97
2023-02-11T18:51:25.544Z,92529.94
2023-02-11T18:53:52.359Z,92528.53
2023-02-11T18:56:20.692Z,92528.72
2023-02-11T18:58:47.821Z,92518.63
2023-02-11T19:01:25.988Z,92511.66
2023-02-11T19:03:53.360Z,92522.66
2023-02-11T19:06:25.420Z,92514.13
2023-02-11T19:08:53.013Z,92513.50
2023-02-11T19:11:19.951Z,92505.50
2023-02-11T19:13:51.362Z,92510.22
2023-02-11T19:16:19.817Z,92508.03
2023-02-11T19:18:46.712Z,92496.59
2023-02-11T19:21:13.413Z,92496.94
2023-02-11T19:23:40.093Z,92492.41
2023-02-11T19:26:06.902Z,92486.72
2023-02-11T19:28:34.117Z,92489.84
2023-02-11T19:31:08.639Z,92494.28
2023-02-11T19:33:35.475Z,92480.19
2023-02-11T19:36:06.107Z,92477.66
2023-02-11T19:38:32.898Z,92476.44
2023-02-11T19:40:59.541Z,92471.66
2023-02-11T19:43:26.773Z,92467.28
2023-02-11T19:45:56.648Z,92475.28
2023-02-11T19:48:26.463Z,92472.50
2023-02-11T19:50:53.562Z,92474.41
2023-02-11T19:53:20.392Z,92480.19
2023-02-11T19:55:47.391Z,92473.81
2023-02-11T19:58:14.564Z,92487.19
2023-02-11T20:00:41.272Z,92490.69
2023-02-11T20:03:08.132Z,92489.91
2023-02-11T20:05:35.119Z,92488.31
2023-02-11T20:08:01.831Z,92481.69
2023-02-11T20:10:28.561Z,92482.13
2023-02-11T20:12:55.298Z,92483.53
2023-02-11T20:15:22.031Z,92472.75
2023-02-11T20:17:49.046Z,92475.28
2023-02-11T20:20:15.851Z,92481.63
2023-02-11T20:22:42.526Z,92484.25
2023-02-11T20:25:10.921Z,92470.25
2023-02-11T20:27:38.830Z,92471.38
2023-02-11T20:30:06.019Z,92468.78
2023-02-11T20:32:38.030Z,92454.41
2023-02-11T20:35:05.934Z,92465.97
2023-02-11T20:37:32.673Z,92465.28
2023-02-11T20:39:59.355Z,92464.78
2023-02-11T20:42:26.722Z,92461.53
2023-02-11T20:44:53.498Z,92455.03
2023-02-11T20:47:20.133Z,92448.88
2023-02-11T20:49:46.846Z,92440.94
2023-02-11T20:52:13.413Z,92438.84
2023-02-11T20:54:40.181Z,92435.84
2023-02-11T20:57:07.499Z,92424.47
2023-02-11T20:59:34.157Z,92441.09
2023-02-11T21:02:01.621Z,92429.59
2023-02-11T21:04:29.837Z,92423.84
2023-02-11T21:07:00.493Z,92421.06
2023-02-11T21:09:29.184Z,92426.97
2023-02-11T21:11:55.925Z,92408.56
2023-02-11T21:14:24.021Z,92416.75
2023-02-11T21:16:50.826Z,92418.31
2023-02-11T21:19:17.538Z,92430.16
2023-02-11T21:21:44.431Z,92420.16
2023-02-11T21:24:11.099Z,92413.53
2023-02-11T21:26:37.766Z,92415.00
2023-02-11T21:29:05.269Z,92414.22
2023-02-11T21:31:32.848Z,92406.78
2023-02-11T21:33:59.724Z,92407.03
2023-02-11T21:36:27.395Z,92392.50
2023-02-11T21:38:54.155Z,92397.56
2023-02-11T21:41:22.575Z,92388.59
2023-02-11T21:43:49.679Z,92386.63
2023-02-11T21:46:16.542Z,92390.34
2023-02-11T21:48:43.428Z,92378.47
2023-02-11T21:51:16.343Z,92390.97
2023-02-11T21:53:43.037Z,92391.34
2023-02-11T21:56:14.626Z,92387.25
2023-02-11T21:58:41.398Z,92383.41
2023-02-11T22:01:15.744Z,92373.47
2023-02-11T22:03:42.623Z,92369.06
2023-02-11T22:06:10.760Z,92370.13
2023-02-11T22:08:37.788Z,92371.25
2023-02-11T22:11:08.684Z,92377.56
2023-02-11T22:13:35.405Z,92361.63
2023-02-11T22:16:03.664Z,92361.44
2023-02-11T22:18:30.537Z,92352.97
2023-02-11T22:21:08.264Z,92345.22
2023-02-11T22:23:35.033Z,92344.13
2023-02-11T22:26:11.963Z,92326.84
2023-02-11T22:28:40.552Z,92330.19
2023-02-11T22:31:08.260Z,92322.00
2023-02-11T22:33:34.970Z,92316.69
2023-02-11T22:36:02.765Z,92322.56
2023-02-11T22:38:30.037Z,92318.25
2023-02-11T22:40:57.121Z,92334.06
2023-02-11T22:43:23.900Z,92331.41
2023-02-11T22:45:50.725Z,92332.94
2023-02-11T22:48:17.616Z,92336.34
2023-02-11T22:50:44.479Z,92338.63
2023-02-11T22:53:11.172Z,92346.66
2023-02-11T22:55:38.827Z,92348.38
2023-02-11T22:58:05.799Z,92352.44
2023-02-11T23:00:37.113Z,92356.53
2023-02-11T23:03:04.508Z,92337.97
2023-02-11T23:05:31.192Z,92345.50
2023-02-11T23:07:57.800Z,92344.09
2023-02-11T23:10:24.448Z,92341.78
2023-02-11T23:12:51.127Z,92340.94
2023-02-11T23:15:17.968Z,92345.19
2023-02-11T23:17:44.741Z,92346.50
2023-02-11T23:20:11.883Z,92340.59
2023-02-11T23:22:38.696Z,92357.53
2023-02-11T23:25:05.646Z,92346.84
2023-02-11T23:27:32.384Z,92352.41
2023-02-11T23:29:59.127Z,92349.56
2023-02-11T23:32:25.991Z,92348.63
2023-02-11T23:34:52.888Z,92339.34
2023-02-11T23:37:19.563Z,92353.75
2023-02-11T23:39:46.305Z,92343.44
2023-02-11T23:42:13.034Z,92352.47
2023-02-11T23:44:39.761Z,92350.44
2023-02-11T23:47:06.456Z,92345.19
2023-02-11T23:49:33.504Z,92339.91
2023-02-11T23:52:00.139Z,92336.94
2023-02-11T23:54:26.815Z,92335.44
2023-02-11T23:56:53.569Z,92329.34
2023-02-11T23:59:20.266Z,92333.16
